This is the latest recevied weather packets stored in our database for station/object KHRO. If no packets are shown the sender has not sent any weather packets the latest 10 day(s).
| Time | Temp. | Humidity | Pressure | Rain* | Wind** | Luminosity | Snow |
|---|---|---|---|---|---|---|---|
| 1777479817 | 16.67° C | 59% | 1018.6 hPa | - | - | - | - |
| 1777479213 | 16.67° C | 59% | 1018.6 hPa | - | - | - | - |
| 1777478617 | 16.67° C | 59% | 1018.6 hPa | - | - | - | - |
| 1777478016 | 13.89° C | 71% | 1018.6 hPa | - | - | - | - |
| 1777477415 | 13.89° C | 71% | 1018.6 hPa | - | - | - | - |
| 1777476819 | 13.89° C | 71% | 1018.6 hPa | - | - | - | - |
| 1777476217 | 13.89° C | 71% | 1018.6 hPa | - | - | - | - |
| 1777475614 | 15.56° C | 67% | 1018.6 hPa | - | - | - | - |
| 1777475016 | 15.56° C | 67% | 1018.6 hPa | - | - | - | - |
| 1777474415 | 13.89° C | 71% | 1018.6 hPa | - | - | - | - |
| 1777473818 | 13.89° C | 71% | 1018.6 hPa | - | - | - | - |
| 1777472618 | 13.89° C | 71% | 1018.6 hPa | - | - | - | - |
| 1777472014 | 13.89° C | 71% | 1018.6 hPa | - | - | - | - |
| 1777471413 | 13.89° C | 71% | 1018.6 hPa | - | - | - | - |
| 1777470814 | 13.89° C | 76% | 1018.6 hPa | - | - | - | - |
| 1777470212 | 13.89° C | 76% | 1018.6 hPa | - | - | - | - |
| 1777469615 | 12.78° C | 87% | 1018.3 hPa | - | - | - | - |
| 1777469016 | 12.78° C | 87% | 1018.3 hPa | - | - | - | - |
| 1777468412 | 12.78° C | 87% | 1018.3 hPa | - | - | - | - |
| 1777467814 | 12.78° C | 87% | 1018.3 hPa | - | - | - | - |
| 1777467215 | 11.67° C | 81% | 1017.9 hPa | - | - | - | - |
| 1777466613 | 11.67° C | 81% | 1017.9 hPa | - | - | - | - |
| 1777466012 | 11.67° C | 81% | 1017.9 hPa | - | - | - | - |
| 1777465413 | 11.67° C | 81% | 1017.9 hPa | - | - | - | - |
| 1777464810 | 11.67° C | 81% | 1017.9 hPa | - | - | - | - |
* Rain since midnight (hover to see other rain measurements)
** Current wind speed in m/s (hover to see current wind gust speed)